MST,Max TemperatureF,Mean TemperatureF,Min TemperatureF,Max Dew PointF,MeanDew PointF,Min DewpointF,Max Humidity, Mean Humidity, Min Humidity, Max Sea Level PressureIn, Mean Sea Level PressureIn, Min Sea Level PressureIn, Max VisibilityMiles, Mean VisibilityMiles, Min VisibilityMiles, Max Wind SpeedMPH, Mean Wind SpeedMPH, Max Gust SpeedMPH,PrecipitationIn, CloudCover, Events, WindDirDegrees
2014-2-1,43,38,30,30,26,18,89,66,25,30.05,29.91,29.76,10,8,0,10,4,18,0.01,4,Fog-Rain-Snow,14
2014-2-2,43,34,24,20,17,15,66,49,22,30.14,30.03,29.94,10,9,7,8,3,,0.00,2,,72
2014-2-3,44,38,32,28,23,21,72,57,30,29.93,29.86,29.78,10,10,7,7,3,,0.00,6,,163
2014-2-4,46,38,30,22,15,6,64,42,13,30.05,29.91,29.83,10,9,4,15,3,25,0.00,3,,314
2014-2-5,45,36,28,17,15,11,58,42,18,30.13,30.05,29.97,10,9,5,6,3,,0.00,0,,23
2014-2-6,46,36,27,31,19,15,70,47,25,30.03,29.95,29.88,10,10,6,6,2,,0.00,4,Rain,4
2014-2-7,52,44,36,33,28,22,83,58,21,30.04,29.95,29.87,10,10,10,10,3,18,0.00,4,Rain,250
2014-2-8,57,46,36,29,27,24,65,45,21,30.16,30.07,30.02,10,10,6,8,3,,0.00,2,,120
2014-2-9,64,53,42,34,33,30,63,45,19,30.06,29.97,29.87,10,10,9,12,5,20,0.00,1,,23
2014-2-10,64,52,41,32,29,20,62,41,22,30.03,29.93,29.86,10,10,7,15,4,26,0.00,2,,293
2014-2-11,55,44,34,23,22,17,57,37,18,30.14,30.08,29.99,10,10,9,7,3,,0.00,0,,309
2014-2-12,57,46,36,21,18,16,46,31,14,30.23,30.12,30.04,10,10,7,8,3,,0.00,0,,5
2014-2-13,72,54,37,24,20,14,49,28,6,30.12,30.01,29.89,10,10,5,14,4,28,0.00,0,,258
2014-2-14,73,60,46,24,19,15,36,21,7,30.04,29.98,29.93,10,10,10,8,3,,0.00,1,,250
2014-2-15,64,54,44,23,20,16,34,25,9,30.04,29.98,29.94,10,10,6,6,1,,0.00,0,,294
2014-2-16,73,58,43,23,19,15,43,24,5,30.07,29.92,29.81,10,10,7,17,3,32,0.00,0,,280
2014-2-17,63,50,37,16,13,10,36,20,5,30.14,30.03,29.91,10,10,10,7,4,,0.00,0,,75
2014-2-18,64,52,41,20,16,13,40,22,7,30.07,29.94,29.88,10,10,2,6,2,,0.00,0,,347
2014-2-19,69,56,43,18,11,3,32,18,4,29.96,29.75,29.55,10,9,2,30,9,48,0.00,0,Rain,302
2014-2-20,51,43,35,11,4,1,29,20,6,30.25,30.13,29.99,10,10,8,17,8,29,0.00,0,,331
2014-2-21,60,45,30,16,9,3,31,22,7,30.12,30.01,29.89,10,10,8,9,3,,0.00,0,,338
2014-2-22,66,52,37,18,14,9,40,23,4,29.94,29.87,29.77,10,10,10,14,2,23,0.00,0,,282
2014-2-23,64,52,39,18,15,12,41,24,6,30.07,29.98,29.91,10,9,2,8,3,,0.00,0,,353
2014-2-24,68,52,37,18,16,13,39,22,7,30.08,29.98,29.90,10,10,9,6,4,,0.00,0,,259
2014-2-25,69,54,39,17,14,9,36,20,4,30.00,29.92,29.83,10,10,6,7,3,,0.00,0,,191
2014-2-26,68,54,41,27,17,14,34,21,6,29.98,29.88,29.79,10,10,8,8,3,,0.00,1,,70
2014-2-27,64,55,44,33,29,24,51,40,18,29.81,29.75,29.67,10,10,9,18,5,33,0.03,3,,221
2014-2-28,54,46,37,40,30,25,79,54,34,29.92,29.78,29.61,10,9,2,8,2,,0.01,4,Rain,358